Terminal Aerodrome Forecast
Issued by NWS

Home | Current Version | Previous Version | Graphics & Text | Print | Product List | Glossary On
Versions: 1 2 3 4 5 6 7 8 9 10 11 12 13 14
000
FTUS43 KGRB 220828 AAA
TAFCWA
TAF AMD
KCWA 220828Z 2208/2306 12005KT P6SM FEW070 WS020/20030KT
      TEMPO 2208/2212 4SM BR
     FM221300 19006KT P6SM SCT070 SCT120
     FM221600 19009KT P6SM FEW250
     FM230400 18005KT P6SM FEW250 WS010/22020KT
      AMD LTD TO CLD VIS AND WIND TIL 221100=

USA.gov is the U.S. government's official web portal to all federal, state and local government web resources and services.